Ballykelly, United Kingdom
Current Conditions -  °F | °C
As of 2:20 PM on Monday 20 Oct 2014 (Local Time) from EGAE Reporting Station
Scattered Clouds Scattered Clouds  
Wind Chill: 59°   Ceiling: Unl
Heat Index: 59°   Visibility: 6mi
Dew Point: 52°   Wind: 14mph
Humidity: 77%   Direction: 220°SW
Pressure: 29.71"   Gusts: NA
Location:  55.05°N, 7.02°W
Report Text: EGAE 201320Z 22012KT 9999 FEW015 SCT025 15/11 Q1006
Loading
Personal Weather Stations






























Interactive Weather Map
Tropical Storm Tracking
New forecast layout! Learn more

10-Day Weather Forecast

Advertisements
Track Severe Weather on mobile